createdAt,value
2018-09-05T00:00:02.559Z,53.00
2018-09-05T00:02:29.884Z,53.00
2018-09-05T00:04:57.223Z,53.10
2018-09-05T00:07:24.649Z,53.00
2018-09-05T00:09:51.989Z,53.20
2018-09-05T00:12:19.312Z,54.10
2018-09-05T00:14:46.649Z,53.10
2018-09-05T00:17:13.993Z,53.20
2018-09-05T00:19:41.317Z,53.00
2018-09-05T00:22:08.645Z,53.00
2018-09-05T00:24:35.987Z,53.30
2018-09-05T00:27:03.312Z,53.40
2018-09-05T00:29:30.661Z,53.60
2018-09-05T00:31:57.952Z,52.90
2018-09-05T00:34:25.243Z,52.50
2018-09-05T00:36:52.709Z,52.70
2018-09-05T00:39:20.139Z,52.60
2018-09-05T00:41:47.446Z,53.00
2018-09-05T00:44:14.765Z,53.20
2018-09-05T00:46:42.121Z,52.50
2018-09-05T00:49:09.471Z,52.50
2018-09-05T00:51:36.823Z,52.40
2018-09-05T00:54:04.484Z,52.90
2018-09-05T00:56:31.812Z,53.10
2018-09-05T00:58:59.256Z,52.80
2018-09-05T01:01:27.243Z,52.40
2018-09-05T01:03:54.584Z,52.90
2018-09-05T01:06:22.023Z,52.90
2018-09-05T01:08:49.388Z,52.90
2018-09-05T01:11:16.692Z,52.90
2018-09-05T01:13:44.183Z,52.90
2018-09-05T01:16:11.487Z,53.10
2018-09-05T01:18:38.896Z,53.30
2018-09-05T01:21:06.356Z,53.20
2018-09-05T01:23:33.688Z,53.70
2018-09-05T01:26:01.016Z,54.10
2018-09-05T01:28:28.408Z,53.60
2018-09-05T01:30:56.827Z,53.80
2018-09-05T01:33:24.209Z,54.60
2018-09-05T01:35:56.141Z,54.40
2018-09-05T01:38:23.483Z,54.90
2018-09-05T01:40:51.246Z,54.90
2018-09-05T01:43:24.137Z,54.40
2018-09-05T01:45:57.147Z,54.60
2018-09-05T01:48:30.933Z,54.90
2018-09-05T01:51:04.646Z,55.00
2018-09-05T01:53:32.024Z,54.70
2018-09-05T01:55:59.746Z,54.80
2018-09-05T01:58:27.052Z,54.80
2018-09-05T02:00:54.463Z,55.40
2018-09-05T02:03:21.755Z,55.20
2018-09-05T02:05:49.089Z,55.50
2018-09-05T02:08:16.516Z,55.10
2018-09-05T02:10:43.801Z,55.80
2018-09-05T02:13:11.193Z,56.10
2018-09-05T02:15:38.564Z,56.20
2018-09-05T02:18:05.954Z,55.00
2018-09-05T02:20:33.253Z,55.30
2018-09-05T02:23:00.612Z,55.40
2018-09-05T02:25:27.936Z,55.10
2018-09-05T02:27:55.301Z,55.40
2018-09-05T02:30:22.624Z,55.30
2018-09-05T02:32:49.912Z,55.10
2018-09-05T02:35:17.279Z,54.50
2018-09-05T02:37:44.611Z,55.10
2018-09-05T02:40:12.130Z,55.00
2018-09-05T02:42:39.415Z,54.80
2018-09-05T02:45:06.929Z,54.80
2018-09-05T02:47:34.454Z,54.60
2018-09-05T02:50:01.826Z,55.10
2018-09-05T02:52:29.285Z,54.50
2018-09-05T02:54:56.591Z,55.00
2018-09-05T02:57:23.924Z,54.70
2018-09-05T02:59:51.300Z,55.00
2018-09-05T03:02:18.648Z,55.00
2018-09-05T03:04:47.014Z,55.30
2018-09-05T03:07:14.418Z,55.10
2018-09-05T03:09:41.717Z,55.20
2018-09-05T03:12:09.119Z,55.30
2018-09-05T03:14:36.459Z,55.10
2018-09-05T03:17:03.987Z,54.90
2018-09-05T03:19:31.275Z,54.90
2018-09-05T03:21:59.324Z,54.80
2018-09-05T03:24:26.658Z,54.80
2018-09-05T03:26:54.021Z,55.30
2018-09-05T03:29:21.332Z,55.20
2018-09-05T03:31:48.643Z,55.40
2018-09-05T03:34:15.957Z,55.30
2018-09-05T03:36:43.287Z,54.90
2018-09-05T03:39:11.397Z,55.30
2018-09-05T03:41:38.841Z,54.40
2018-09-05T03:44:06.246Z,55.10
2018-09-05T03:46:33.583Z,55.20
2018-09-05T03:49:00.887Z,55.50
2018-09-05T03:51:28.251Z,55.00
2018-09-05T03:53:55.584Z,55.10
2018-09-05T03:56:22.839Z,55.10
2018-09-05T03:58:50.169Z,55.30
2018-09-05T04:01:17.528Z,55.10
2018-09-05T04:03:44.996Z,55.20
2018-09-05T04:06:18.080Z,55.30
2018-09-05T04:08:45.419Z,55.10
2018-09-05T04:11:12.744Z,55.10
2018-09-05T04:13:40.113Z,55.10
2018-09-05T04:16:07.408Z,54.90
2018-09-05T04:18:34.792Z,55.00
2018-09-05T04:21:02.100Z,55.20
2018-09-05T04:23:34.040Z,54.80
2018-09-05T04:26:01.314Z,54.80
2018-09-05T04:28:28.613Z,54.60
2018-09-05T04:30:55.928Z,54.40
2018-09-05T04:33:23.330Z,54.50
2018-09-05T04:35:50.725Z,54.40
2018-09-05T04:38:18.019Z,53.90
2018-09-05T04:40:45.327Z,53.80
2018-09-05T04:43:12.627Z,53.80
2018-09-05T04:45:39.942Z,53.40
2018-09-05T04:48:07.328Z,53.60
2018-09-05T04:50:34.716Z,53.90
2018-09-05T04:53:01.988Z,54.00
2018-09-05T04:55:29.309Z,54.10
2018-09-05T04:57:56.793Z,54.00
2018-09-05T05:00:24.083Z,54.10
2018-09-05T05:02:51.444Z,53.90
2018-09-05T05:05:18.833Z,53.90
2018-09-05T05:07:46.155Z,54.30
2018-09-05T05:10:13.490Z,54.60
2018-09-05T05:12:40.829Z,54.10
2018-09-05T05:15:08.284Z,53.80
2018-09-05T05:17:35.612Z,54.10
2018-09-05T05:20:03.015Z,54.20
2018-09-05T05:22:30.706Z,54.70
2018-09-05T05:24:58.557Z,54.30
2018-09-05T05:27:25.944Z,54.20
2018-09-05T05:29:53.295Z,54.10
2018-09-05T05:32:20.588Z,54.10
2018-09-05T05:34:47.980Z,54.40
2018-09-05T05:37:15.287Z,54.20
2018-09-05T05:39:42.642Z,54.10
2018-09-05T05:42:09.999Z,54.00
2018-09-05T05:44:37.308Z,54.00
2018-09-05T05:47:04.805Z,53.80
2018-09-05T05:49:32.148Z,53.80
2018-09-05T05:51:59.484Z,53.80
2018-09-05T05:54:26.786Z,54.00
2018-09-05T05:56:54.085Z,53.80
2018-09-05T05:59:21.431Z,53.50
2018-09-05T06:01:48.764Z,53.40
2018-09-05T06:04:17.103Z,54.20
2018-09-05T06:06:44.471Z,53.50
2018-09-05T06:09:12.361Z,53.10
2018-09-05T06:11:39.698Z,52.90
2018-09-05T06:14:07.063Z,53.00
2018-09-05T06:16:34.383Z,53.00
2018-09-05T06:19:01.680Z,53.00
2018-09-05T06:21:29.028Z,52.90
2018-09-05T06:23:57.571Z,53.00
2018-09-05T06:26:24.842Z,52.70
2018-09-05T06:28:52.129Z,52.20
2018-09-05T06:31:19.799Z,52.60
2018-09-05T06:33:46.983Z,51.80
2018-09-05T06:36:14.374Z,51.90
2018-09-05T06:38:41.755Z,51.70
2018-09-05T06:41:09.382Z,52.00
2018-09-05T06:43:36.781Z,51.70
2018-09-05T06:46:04.075Z,52.10
2018-09-05T06:48:31.427Z,51.70
2018-09-05T06:51:05.559Z,51.40
2018-09-05T06:53:33.219Z,51.40
2018-09-05T06:56:00.996Z,51.50
2018-09-05T06:58:28.344Z,51.00
2018-09-05T07:00:55.658Z,51.30
2018-09-05T07:03:23.060Z,52.00
2018-09-05T07:05:50.557Z,51.30
2018-09-05T07:08:17.939Z,51.40
2018-09-05T07:10:45.466Z,51.40
2018-09-05T07:13:12.777Z,51.30
2018-09-05T07:15:40.183Z,51.40
2018-09-05T07:18:07.496Z,50.90
2018-09-05T07:20:35.796Z,50.90
2018-09-05T07:23:03.308Z,51.20
2018-09-05T07:25:30.788Z,51.30
2018-09-05T07:27:58.073Z,50.70
2018-09-05T07:30:26.025Z,50.00
2018-09-05T07:32:54.397Z,50.00
2018-09-05T07:35:21.762Z,50.00
2018-09-05T07:37:49.294Z,49.40
2018-09-05T07:40:17.318Z,49.20
2018-09-05T07:42:44.671Z,49.90
2018-09-05T07:47:40.314Z,44.00
2018-09-05T07:50:07.660Z,48.80
2018-09-05T07:52:35.843Z,52.80
2018-09-05T07:55:04.262Z,55.30
2018-09-05T07:57:31.835Z,55.90
2018-09-05T07:59:59.463Z,56.40
2018-09-05T08:02:26.991Z,56.70
2018-09-05T08:04:54.424Z,56.90
2018-09-05T08:07:22.149Z,56.50
2018-09-05T08:09:50.177Z,56.20
2018-09-05T08:12:18.180Z,56.30
2018-09-05T08:14:45.487Z,56.40
2018-09-05T08:17:12.809Z,56.10
2018-09-05T08:19:40.178Z,56.00
2018-09-05T08:22:07.794Z,55.70
2018-09-05T08:24:35.285Z,55.90
2018-09-05T08:27:02.878Z,55.90
2018-09-05T08:29:30.191Z,55.90
2018-09-05T08:31:57.981Z,56.00
2018-09-05T08:34:25.883Z,55.70
2018-09-05T08:36:53.963Z,55.30
2018-09-05T08:39:21.423Z,54.80
2018-09-05T08:41:49.179Z,55.10
2018-09-05T08:44:16.830Z,55.30
2018-09-05T08:46:44.272Z,55.40
2018-09-05T08:49:11.923Z,54.90
2018-09-05T08:51:40.068Z,54.90
2018-09-05T08:54:07.574Z,55.10
2018-09-05T08:56:35.012Z,54.90
2018-09-05T08:59:02.368Z,54.60
2018-09-05T09:01:29.757Z,54.50
2018-09-05T09:03:58.226Z,54.60
2018-09-05T09:06:26.305Z,54.40
2018-09-05T09:08:54.142Z,54.30
2018-09-05T09:11:21.705Z,53.90
2018-09-05T09:13:49.358Z,53.50
2018-09-05T09:16:16.766Z,53.10
2018-09-05T09:18:44.184Z,53.40
2018-09-05T09:21:12.179Z,53.30
2018-09-05T09:23:39.591Z,53.20
2018-09-05T09:26:08.288Z,53.30
2018-09-05T09:28:37.275Z,53.40
2018-09-05T09:31:05.128Z,53.50
2018-09-05T09:33:32.678Z,53.10
2018-09-05T09:36:00.203Z,52.90
2018-09-05T09:38:28.122Z,53.20
2018-09-05T09:40:56.494Z,53.20
2018-09-05T09:43:23.863Z,52.80
2018-09-05T09:45:51.927Z,52.60
2018-09-05T09:48:19.540Z,52.90
2018-09-05T09:50:47.361Z,53.00
2018-09-05T09:53:15.103Z,53.00
2018-09-05T09:55:42.905Z,53.30
2018-09-05T09:58:16.156Z,53.20
2018-09-05T10:00:51.132Z,53.10
2018-09-05T10:03:24.461Z,53.10
2018-09-05T10:05:57.787Z,52.90
2018-09-05T10:08:31.983Z,53.00
2018-09-05T10:11:17.348Z,53.10
2018-09-05T10:13:50.386Z,53.60
2018-09-05T10:16:23.602Z,52.60
2018-09-05T10:18:52.454Z,52.40
2018-09-05T10:21:20.929Z,52.60
2018-09-05T10:23:48.785Z,52.10
2018-09-05T10:26:16.100Z,52.30
2018-09-05T10:28:43.830Z,52.90
2018-09-05T10:31:11.915Z,52.30
2018-09-05T10:33:39.680Z,52.00
2018-09-05T10:36:07.059Z,51.90
2018-09-05T10:38:34.786Z,51.70
2018-09-05T10:41:02.282Z,51.90
2018-09-05T10:43:29.885Z,51.80
2018-09-05T10:45:57.365Z,52.00
2018-09-05T10:48:24.777Z,51.40
2018-09-05T10:50:52.714Z,51.70
2018-09-05T10:53:20.488Z,51.70
2018-09-05T10:55:48.554Z,51.40
2018-09-05T10:58:16.422Z,51.40
2018-09-05T11:00:43.812Z,51.20
2018-09-05T11:03:11.315Z,51.20
2018-09-05T11:05:38.804Z,51.10
2018-09-05T11:08:06.752Z,51.00
2018-09-05T11:10:34.116Z,50.80
2018-09-05T11:13:01.515Z,50.50
2018-09-05T11:15:28.853Z,50.70
2018-09-05T11:17:56.371Z,50.70
2018-09-05T11:20:23.859Z,50.80
2018-09-05T11:22:51.231Z,50.20
2018-09-05T11:25:18.581Z,50.00
2018-09-05T11:27:50.984Z,50.00
2018-09-05T11:30:18.352Z,50.00
2018-09-05T11:32:45.772Z,49.80
2018-09-05T11:35:13.112Z,49.70
2018-09-05T11:37:40.454Z,49.90
2018-09-05T11:40:08.076Z,50.00
2018-09-05T11:42:35.442Z,50.50
2018-09-05T11:45:02.882Z,50.50
2018-09-05T11:47:30.271Z,50.10
2018-09-05T11:49:57.723Z,49.80
2018-09-05T11:52:25.685Z,49.80
2018-09-05T11:54:53.033Z,49.60
2018-09-05T11:57:20.458Z,49.60
2018-09-05T11:59:47.760Z,49.90
2018-09-05T12:02:15.250Z,49.90
2018-09-05T12:04:42.587Z,49.70
2018-09-05T12:07:10.525Z,49.70
2018-09-05T12:09:37.875Z,49.60
2018-09-05T12:12:05.249Z,49.40
2018-09-05T12:14:32.974Z,49.60
2018-09-05T12:17:00.531Z,49.20
2018-09-05T12:19:27.908Z,48.80
2018-09-05T12:21:55.179Z,48.50
2018-09-05T12:24:23.598Z,48.70
2018-09-05T12:26:51.375Z,48.60
2018-09-05T12:29:22.848Z,48.50
2018-09-05T12:31:50.956Z,48.50
2018-09-05T12:34:19.657Z,48.50
2018-09-05T12:36:47.540Z,48.50
2018-09-05T12:39:15.852Z,48.70
2018-09-05T12:41:43.420Z,48.80
2018-09-05T12:44:11.060Z,49.00
2018-09-05T12:46:39.049Z,49.30
2018-09-05T12:49:06.496Z,49.20
2018-09-05T12:51:33.837Z,49.20
2018-09-05T12:54:01.386Z,49.20
2018-09-05T12:56:28.880Z,49.20
2018-09-05T12:58:56.607Z,49.40
2018-09-05T13:01:24.406Z,49.20
2018-09-05T13:03:51.919Z,49.20
2018-09-05T13:06:19.614Z,49.20
2018-09-05T13:08:47.324Z,49.20
2018-09-05T13:11:14.842Z,49.20
2018-09-05T13:13:42.147Z,49.20
2018-09-05T13:16:10.494Z,49.10
2018-09-05T13:18:37.984Z,48.60
2018-09-05T13:21:05.159Z,48.60
2018-09-05T13:23:33.626Z,48.70
2018-09-05T13:26:01.276Z,48.70
2018-09-05T13:28:28.675Z,48.60
2018-09-05T13:30:56.302Z,48.50
2018-09-05T13:33:23.753Z,48.50
2018-09-05T13:35:51.226Z,48.50
2018-09-05T13:38:18.744Z,48.50
2018-09-05T13:40:46.137Z,48.30
2018-09-05T13:43:13.551Z,48.30
2018-09-05T13:45:40.946Z,48.50
2018-09-05T13:48:08.567Z,48.40
2018-09-05T13:50:36.329Z,48.00
2018-09-05T13:53:03.748Z,48.20
2018-09-05T13:55:31.257Z,48.10
2018-09-05T13:58:04.592Z,48.20
2018-09-05T14:00:32.007Z,48.10
2018-09-05T14:02:59.312Z,48.00
2018-09-05T14:05:29.901Z,47.80
2018-09-05T14:07:57.237Z,47.80
2018-09-05T14:10:24.965Z,48.00
2018-09-05T14:12:52.816Z,47.60
2018-09-05T14:15:20.157Z,47.60
2018-09-05T14:17:48.172Z,47.60
2018-09-05T14:20:15.863Z,47.60
2018-09-05T14:22:43.510Z,47.50
2018-09-05T14:25:10.852Z,47.80
2018-09-05T14:27:38.575Z,47.60
2018-09-05T14:30:06.308Z,47.70
2018-09-05T14:32:35.716Z,47.70
2018-09-05T14:35:04.263Z,47.50
2018-09-05T14:37:31.608Z,47.50
2018-09-05T14:39:59.237Z,47.00
2018-09-05T14:42:26.935Z,47.20
2018-09-05T14:44:54.358Z,47.20
2018-09-05T14:47:22.397Z,47.00
2018-09-05T14:49:49.719Z,47.00
2018-09-05T14:52:17.816Z,46.70
2018-09-05T14:54:45.282Z,47.00
2018-09-05T14:57:12.622Z,46.90
2018-09-05T14:59:40.049Z,46.90
2018-09-05T15:02:07.430Z,46.20
2018-09-05T15:04:34.949Z,46.30
2018-09-05T15:07:02.296Z,46.50
2018-09-05T15:09:30.053Z,46.10
2018-09-05T15:11:57.895Z,46.00
2018-09-05T15:14:25.621Z,45.70
2018-09-05T15:16:53.160Z,45.90
2018-09-05T15:19:20.514Z,45.60
2018-09-05T15:21:48.815Z,45.60
2018-09-05T15:24:16.141Z,45.70
2018-09-05T15:26:43.733Z,45.50
2018-09-05T15:29:11.356Z,45.40
2018-09-05T15:31:38.893Z,45.60
2018-09-05T15:34:06.277Z,45.50
2018-09-05T15:36:33.982Z,45.30
2018-09-05T15:39:02.161Z,45.30
2018-09-05T15:41:30.141Z,45.50
2018-09-05T15:43:57.484Z,45.80
2018-09-05T15:46:24.908Z,46.10
2018-09-05T15:48:52.882Z,46.20
2018-09-05T15:51:20.205Z,46.00
2018-09-05T15:53:47.576Z,45.70
2018-09-05T15:56:14.896Z,45.50
2018-09-05T15:58:42.669Z,45.50
2018-09-05T16:01:10.043Z,45.60
2018-09-05T16:03:37.900Z,45.40
2018-09-05T16:06:05.380Z,45.50
2018-09-05T16:08:33.047Z,45.40
2018-09-05T16:11:00.356Z,45.40
2018-09-05T16:13:27.740Z,45.20
2018-09-05T16:15:55.052Z,45.10
2018-09-05T16:18:22.900Z,45.20
2018-09-05T16:20:50.290Z,44.90
2018-09-05T16:23:17.984Z,44.70
2018-09-05T16:25:45.456Z,44.80
2018-09-05T16:28:12.808Z,44.90
2018-09-05T16:30:40.317Z,45.10
2018-09-05T16:33:08.124Z,45.40
2018-09-05T16:35:35.859Z,45.90
2018-09-05T16:38:03.448Z,45.00
2018-09-05T16:40:30.835Z,45.00
2018-09-05T16:42:58.523Z,45.00
2018-09-05T16:45:26.320Z,44.90
2018-09-05T16:47:53.800Z,45.00
2018-09-05T16:50:21.582Z,45.50
2018-09-05T16:52:48.948Z,46.00
2018-09-05T16:55:16.443Z,45.60
2018-09-05T16:57:44.411Z,46.20
2018-09-05T17:00:12.116Z,46.30
2018-09-05T17:02:39.647Z,45.90
2018-09-05T17:05:07.150Z,45.90
2018-09-05T17:07:34.650Z,46.20
2018-09-05T17:10:05.456Z,46.00
2018-09-05T17:12:33.246Z,45.10
2018-09-05T17:15:00.734Z,44.60
2018-09-05T17:17:29.368Z,44.80
2018-09-05T17:19:57.038Z,44.00
2018-09-05T17:22:25.704Z,44.20
2018-09-05T17:24:53.236Z,44.00
2018-09-05T17:27:20.582Z,44.10
2018-09-05T17:29:47.940Z,43.90
2018-09-05T17:32:16.106Z,44.00
2018-09-05T17:34:43.640Z,43.90
2018-09-05T17:37:11.123Z,44.00
2018-09-05T17:39:38.505Z,43.90
2018-09-05T17:42:06.530Z,44.00
2018-09-05T17:44:34.229Z,43.90
2018-09-05T17:47:01.784Z,43.70
2018-09-05T17:49:29.359Z,43.80
2018-09-05T17:51:57.027Z,43.60
2018-09-05T17:54:24.622Z,43.70
2018-09-05T17:56:52.370Z,43.50
2018-09-05T17:59:21.737Z,43.40
2018-09-05T18:01:49.439Z,43.50
2018-09-05T18:04:18.149Z,43.20
2018-09-05T18:06:45.771Z,43.40
2018-09-05T18:09:13.089Z,43.30
2018-09-05T18:11:40.812Z,43.30
2018-09-05T18:14:08.308Z,43.20
2018-09-05T18:16:35.675Z,43.30
2018-09-05T18:19:03.214Z,43.20
2018-09-05T18:21:30.776Z,43.20
2018-09-05T18:23:58.280Z,43.20
2018-09-05T18:26:26.020Z,43.10
2018-09-05T18:28:53.820Z,43.10
2018-09-05T18:31:21.696Z,43.00
2018-09-05T18:33:49.131Z,43.20
2018-09-05T18:36:17.784Z,43.30
2018-09-05T18:38:45.744Z,43.30
2018-09-05T18:41:13.079Z,44.00
2018-09-05T18:43:40.440Z,44.70
2018-09-05T18:46:08.170Z,45.00
2018-09-05T18:48:35.655Z,45.50
2018-09-05T18:51:03.689Z,45.60
2018-09-05T18:53:31.018Z,45.90
2018-09-05T18:55:58.664Z,46.30
2018-09-05T18:58:26.192Z,47.20
2018-09-05T19:00:55.391Z,47.60
2018-09-05T19:03:22.708Z,47.90
2018-09-05T19:05:50.301Z,48.30
2018-09-05T19:08:17.820Z,48.60
2018-09-05T19:10:45.685Z,48.60
2018-09-05T19:13:13.120Z,48.80
2018-09-05T19:15:40.596Z,49.40
2018-09-05T19:18:07.913Z,49.60
2018-09-05T19:20:35.515Z,49.70
2018-09-05T19:23:03.413Z,49.80
2018-09-05T19:25:30.734Z,50.20
2018-09-05T19:27:58.073Z,50.50
2018-09-05T19:30:25.498Z,50.70
2018-09-05T19:32:53.969Z,51.00
2018-09-05T19:35:21.271Z,51.20
2018-09-05T19:37:48.571Z,51.50
2018-09-05T19:40:15.932Z,51.80
2018-09-05T19:42:43.227Z,52.20
2018-09-05T19:45:10.616Z,52.60
2018-09-05T19:47:37.898Z,52.50
2018-09-05T19:50:05.527Z,52.70
2018-09-05T19:52:33.440Z,53.00
2018-09-05T19:55:00.779Z,53.40
2018-09-05T19:57:28.172Z,53.70
2018-09-05T19:59:55.496Z,53.80
2018-09-05T20:02:22.949Z,54.00
2018-09-05T20:04:50.345Z,54.50
2018-09-05T20:07:17.691Z,55.10
2018-09-05T20:09:45.167Z,54.90
2018-09-05T20:12:12.504Z,55.30
2018-09-05T20:14:39.870Z,55.20
2018-09-05T20:17:07.121Z,55.60
2018-09-05T20:19:34.491Z,55.50
2018-09-05T20:22:02.272Z,55.60
2018-09-05T20:24:29.695Z,55.90
2018-09-05T20:26:57.096Z,56.20
2018-09-05T20:29:24.524Z,56.10
2018-09-05T20:31:52.228Z,56.20
2018-09-05T20:34:19.608Z,56.60
2018-09-05T20:36:47.092Z,56.70
2018-09-05T20:39:14.415Z,56.60
2018-09-05T20:41:42.828Z,56.80
2018-09-05T20:44:10.312Z,57.00
2018-09-05T20:46:39.961Z,57.20
2018-09-05T20:49:08.773Z,57.40
2018-09-05T20:51:37.213Z,57.30
2018-09-05T20:54:04.571Z,57.40
2018-09-05T20:56:32.255Z,57.20
2018-09-05T20:58:59.676Z,56.30
2018-09-05T21:01:27.100Z,55.50
2018-09-05T21:03:54.459Z,55.20
2018-09-05T21:06:33.023Z,54.70
2018-09-05T21:09:01.113Z,54.30
2018-09-05T21:11:28.504Z,53.90
2018-09-05T21:13:55.938Z,53.70
2018-09-05T21:16:23.266Z,53.30
2018-09-05T21:18:50.552Z,52.90
2018-09-05T21:21:17.899Z,52.60
